Terminal Aerodrome Forecast
Issued by NWS

Home | Current Version | Previous Version | Text Only | Print | Product List | Glossary On
Versions: 1 2 3 4 5 6 7 8 9 10 11 12 13
000
FTUS43 KICT 042331
TAFSLN
TAF
KSLN 042331Z 0500/0524 17009KT P6SM SCT025 OVC040
     FM050200 17007KT P6SM VCTS SCT050CB OVC100
     FM050600 14007KT P6SM SCT050
     FM051200 12008KT P6SM SCT015 BKN025=

USA.gov is the U.S. government's official web portal to all federal, state and local government web resources and services.